Fort Worth, TX

6:43 AM CDT on August 30, 2016 (GMT -0500)
Las Vegas Trl | | Change Station

Elev 702 ft 32.77 °N, 97.47 °W | Updated 4 minutes ago

Partly Cloudy
Partly Cloudy
71.1 °F
Feels Like 71.1 °F
N
0.0
Wind Variable Wind from NNW

Today
High -- | Low -- °F
--% Chance of Precip.
Yesterday
High -- | Low -- °F
Precip. -- in
Pressure 29.99 in
Visibility 10.0 miles
Clouds Few 25000 ft
Dew Point 70 °F
Humidity 95%
Rainfall 0.00 in
Snow Depth Not available.
7:03 AM 7:56 PM
Waning Crescent, 4% visible
METAR KNFW 301052Z 36004KT 10SM FEW250 24/22 A3004 RMK AO2 SLP155 T02440217
Pressure 29.99 in
Visibility 10.0 miles
Clouds Few 25000 ft
Dew Point 70 °F
Humidity 95%
Rainfall 0.00 in
Snow Depth Not available.
7:03 AM 7:56 PM
Waning Crescent, 4% visible
METAR KNFW 301052Z 36004KT 10SM FEW250 24/22 A3004 RMK AO2 SLP155 T02440217

10-Day Weather Forecast

Almanac

Astronomy

Aug. 30, 2016 Rise Set
Actual Time
Civil Twilight
Nautical Twilight
Astronomical Twilight
Moon
Length of Visible Light
Length of Day
Tomorrow will be .
, % of the Moon is Illuminated

Today's Extremes

State Highs State Lows

Community

WunderPhotos

Upload Photos

1,935,814 photos uploaded!

WunderBlog® & News

Nearby

Air Quality

  Air Quality AQ Index Pollutant
Not available.

Snow Depth

Station Depth Elevation

Earthquake Activity

City Distance Mag. Time & Date
Minimum magnitude displayed is 2.5.

Coastal Water Temperatures

Place Temperature

Stations

Nearby Weather Stations

Station Location Temp. Windchill Dew Point Humidity Wind Precip. Elev Updated Type
                   

Watches & Warnings

There are currently no watches in effect.